Time;durP1;ratioP1;P1;durP2;ratioP2;P2;SDS_P1;SDS_P2;PMS_P1;PMS_P2;Temp;Humidity;BMP_temperature;BMP_pressure;BME280_temperature;BME280_humidity;BME280_pressure;Samples;Min_cycle;Max_cycle;Signal;HPM_P1;HPM_P2
2021/06/06 00:02:22;;;;;;;12.52;9.70;;;;;;;;;;5010883;28;20037;-74
2021/06/06 00:04:48;;;;;;;11.73;10.48;;;;;;;;;;4994933;28;20038;-74
2021/06/06 00:07:14;;;;;;;11.60;10.15;;;;;;;;;;4994264;28;20084;-74
2021/06/06 00:09:39;;;;;;;14.25;11.85;;;;;;;;;;4994601;28;20044;-74
2021/06/06 00:12:05;;;;;;;14.20;11.30;;;;;;;;;;4994490;28;20029;-74
2021/06/06 00:14:32;;;;;;;14.50;11.15;;;;;;;;;;4994603;28;20030;-74
2021/06/06 00:16:59;;;;;;;13.35;11.27;;;;;;;;;;4994601;28;20037;-74
2021/06/06 00:19:25;;;;;;;13.05;11.60;;;;;;;;;;4997700;28;20025;-74
2021/06/06 00:21:51;;;;;;;13.55;11.20;;;;;;;;;;4997765;28;20022;-74
2021/06/06 00:24:18;;;;;;;13.27;11.10;;;;;;;;;;5014041;28;20083;-74
2021/06/06 00:26:43;;;;;;;14.23;11.57;;;;;;;;;;5014331;28;20033;-74
2021/06/06 00:29:09;;;;;;;12.75;10.52;;;;;;;;;;5030443;28;20030;-74
2021/06/06 00:31:34;;;;;;;13.10;11.70;;;;;;;;;;5030225;28;20029;-74
2021/06/06 00:34:00;;;;;;;15.35;11.93;;;;;;;;;;5013649;28;20037;-74
2021/06/06 00:36:25;;;;;;;14.68;12.93;;;;;;;;;;5013964;28;20030;-74
2021/06/06 00:38:51;;;;;;;14.77;12.80;;;;;;;;;;5030666;28;20033;-74
2021/06/06 00:41:17;;;;;;;13.45;12.05;;;;;;;;;;5013747;28;20029;-74
2021/06/06 00:43:43;;;;;;;15.93;12.77;;;;;;;;;;5013875;28;20531;-74
2021/06/06 00:46:08;;;;;;;12.32;10.07;;;;;;;;;;5013724;28;20045;-74
2021/06/06 00:48:34;;;;;;;12.60;10.80;;;;;;;;;;5013762;28;20539;-74
2021/06/06 00:51:16;;;;;;;14.65;11.27;;;;;;;;;;5014171;28;20033;-74
2021/06/06 00:53:49;;;;;;;;;;;;;;;;;;5015833;28;20048;-74
2021/06/06 00:56:17;;;;;;;13.10;11.00;;;;;;;;;;5031601;28;19905;-74
2021/06/06 00:58:43;;;;;;;12.52;9.82;;;;;;;;;;4997964;28;20025;-74
2021/06/06 01:01:10;;;;;;;12.40;10.20;;;;;;;;;;4994026;28;20480;-74
2021/06/06 01:03:35;;;;;;;14.18;10.77;;;;;;;;;;4994111;28;20493;-74
2021/06/06 01:06:14;;;;;;;11.32;10.23;;;;;;;;;;4994590;28;20029;-74
2021/06/06 01:08:39;;;;;;;12.75;9.73;;;;;;;;;;4995150;28;20092;-74
2021/06/06 01:11:12;;;;;;;12.10;8.25;;;;;;;;;;4994181;28;20403;-74
2021/06/06 01:13:41;;;;;;;10.45;8.40;;;;;;;;;;4993864;28;20384;-74
2021/06/06 01:16:10;;;;;;;10.40;7.45;;;;;;;;;;4994143;28;20038;-74
2021/06/06 01:18:37;;;;;;;9.18;8.27;;;;;;;;;;5004905;28;20029;-74
2021/06/06 01:21:19;;;;;;;8.30;7.03;;;;;;;;;;5017477;28;20037;-74
2021/06/06 01:24:22;;;;;;;8.32;6.75;;;;;;;;;;5017093;28;20037;-74
2021/06/06 01:26:54;;;;;;;10.27;7.63;;;;;;;;;;5035263;28;20034;-74
2021/06/06 01:29:44;;;;;;;8.70;7.10;;;;;;;;;;5033775;28;20087;-74
2021/06/06 01:32:12;;;;;;;8.25;7.18;;;;;;;;;;5028248;28;20045;-74
2021/06/06 01:34:38;;;;;;;9.43;7.10;;;;;;;;;;5033166;28;20053;-74
2021/06/06 01:37:07;;;;;;;7.78;5.85;;;;;;;;;;5001291;28;20041;-74
2021/06/06 01:39:39;;;;;;;8.77;6.00;;;;;;;;;;5017134;28;20029;-74
2021/06/06 01:42:12;;;;;;;6.95;5.70;;;;;;;;;;5017624;28;20094;-74
2021/06/06 01:44:37;;;;;;;9.80;5.60;;;;;;;;;;5017111;28;20479;-74
2021/06/06 01:47:25;;;;;;;8.07;6.47;;;;;;;;;;5017109;28;20048;-74
2021/06/06 01:49:53;;;;;;;6.30;5.47;;;;;;;;;;5018689;28;20395;-74
2021/06/06 01:52:18;;;;;;;7.18;5.03;;;;;;;;;;5016745;28;20120;-73
2021/06/06 01:54:44;;;;;;;6.50;4.63;;;;;;;;;;5000059;28;20104;-73
2021/06/06 01:57:14;;;;;;;6.80;5.35;;;;;;;;;;5017049;28;20037;-74
2021/06/06 01:59:43;;;;;;;6.32;5.43;;;;;;;;;;5017119;28;20022;-74
2021/06/06 02:02:09;;;;;;;7.40;4.82;;;;;;;;;;5013371;28;20506;-74
2021/06/06 02:04:35;;;;;;;5.38;4.32;;;;;;;;;;4996685;28;20088;-74
2021/06/06 02:07:11;;;;;;;5.95;4.72;;;;;;;;;;4996722;28;20496;-74
2021/06/06 02:09:41;;;;;;;6.53;5.43;;;;;;;;;;5013231;28;20040;-74
2021/06/06 02:12:07;;;;;;;6.72;4.90;;;;;;;;;;4997345;28;20066;-74
2021/06/06 02:14:40;;;;;;;5.28;4.70;;;;;;;;;;4980567;28;20084;-74
2021/06/06 02:17:11;;;;;;;6.00;4.50;;;;;;;;;;4997142;28;20025;-74
2021/06/06 02:19:38;;;;;;;5.50;4.47;;;;;;;;;;5010829;28;20484;-74
2021/06/06 02:22:07;;;;;;;7.40;4.97;;;;;;;;;;4996977;28;20072;-74
2021/06/06 02:24:33;;;;;;;6.18;4.95;;;;;;;;;;4996874;28;20026;-74
2021/06/06 02:27:17;;;;;;;7.47;4.75;;;;;;;;;;4997139;28;20056;-74
2021/06/06 02:29:57;;;;;;;5.50;4.50;;;;;;;;;;4995468;28;20034;-74
2021/06/06 02:32:26;;;;;;;5.93;4.97;;;;;;;;;;5012710;28;20034;-74
2021/06/06 02:35:11;;;;;;;6.03;4.97;;;;;;;;;;5012657;28;20041;-74
2021/06/06 02:37:55;;;;;;;9.95;4.82;;;;;;;;;;4996456;28;20373;-74
2021/06/06 02:40:36;;;;;;;5.82;4.75;;;;;;;;;;5013703;28;20026;-74
2021/06/06 02:43:11;;;;;;;6.07;4.63;;;;;;;;;;4997446;28;20443;-74
2021/06/06 02:45:36;;;;;;;6.55;5.28;;;;;;;;;;4996362;28;20384;-74
2021/06/06 02:48:24;;;;;;;6.53;4.82;;;;;;;;;;4996376;28;20042;-74
2021/06/06 02:50:49;;;;;;;6.57;5.50;;;;;;;;;;5012324;28;20054;-75
2021/06/06 02:53:20;;;;;;;8.48;5.97;;;;;;;;;;4996194;28;20034;-74
2021/06/06 02:55:48;;;;;;;6.13;5.38;;;;;;;;;;5012366;28;20392;-74
2021/06/06 02:58:24;;;;;;;6.60;5.78;;;;;;;;;;4996408;28;20087;-74
2021/06/06 03:00:54;;;;;;;7.00;5.50;;;;;;;;;;5015878;28;20078;-74
2021/06/06 03:03:26;;;;;;;6.82;5.97;;;;;;;;;;5032182;28;20042;-74
2021/06/06 03:05:52;;;;;;;7.35;5.63;;;;;;;;;;5031916;28;20033;-74
2021/06/06 03:08:17;;;;;;;7.97;6.97;;;;;;;;;;4999235;28;20091;-74
2021/06/06 03:10:43;;;;;;;7.82;5.60;;;;;;;;;;5015429;28;20037;-75
2021/06/06 03:13:23;;;;;;;7.00;5.75;;;;;;;;;;5031860;28;20034;-74
2021/06/06 03:15:50;;;;;;;7.18;6.05;;;;;;;;;;5016652;28;20482;-74
2021/06/06 03:18:16;;;;;;;8.90;7.13;;;;;;;;;;4998993;28;20033;-74
2021/06/06 03:20:43;;;;;;;7.50;6.55;;;;;;;;;;5014757;28;20034;-75
2021/06/06 03:23:09;;;;;;;9.05;7.75;;;;;;;;;;4998950;28;20487;-75
2021/06/06 03:25:44;;;;;;;8.52;7.00;;;;;;;;;;5015090;28;20030;-74
2021/06/06 03:28:11;;;;;;;9.15;7.78;;;;;;;;;;5015395;28;20109;-75
2021/06/06 03:30:39;;;;;;;10.30;8.15;;;;;;;;;;4998287;28;20515;-75
2021/06/06 03:33:13;;;;;;;9.55;7.80;;;;;;;;;;5014839;28;20077;-75
2021/06/06 03:35:39;;;;;;;9.88;8.02;;;;;;;;;;4999389;28;20395;-75
2021/06/06 03:38:04;;;;;;;10.18;8.27;;;;;;;;;;5015418;28;20041;-75
2021/06/06 03:40:32;;;;;;;10.25;8.13;;;;;;;;;;4998565;28;20490;-75
2021/06/06 03:42:58;;;;;;;10.27;8.75;;;;;;;;;;5013919;28;20041;-75
2021/06/06 03:45:23;;;;;;;10.65;9.48;;;;;;;;;;5014312;28;20041;-76
2021/06/06 03:47:49;;;;;;;10.77;9.50;;;;;;;;;;5015059;28;20037;-75
2021/06/06 03:50:20;;;;;;;11.68;8.85;;;;;;;;;;4980639;28;20026;-75
2021/06/06 03:52:46;;;;;;;10.48;9.07;;;;;;;;;;5011352;28;20044;-75
2021/06/06 03:55:12;;;;;;;9.55;8.43;;;;;;;;;;4994905;28;20026;-74
2021/06/06 03:57:38;;;;;;;12.38;10.38;;;;;;;;;;4995150;28;20546;-74
2021/06/06 04:00:07;;;;;;;11.50;9.88;;;;;;;;;;5010719;28;20048;-74
2021/06/06 04:02:32;;;;;;;11.43;9.77;;;;;;;;;;5011116;28;20065;-74
2021/06/06 04:04:58;;;;;;;12.75;10.88;;;;;;;;;;5010993;28;20108;-74
2021/06/06 04:07:23;;;;;;;13.18;10.82;;;;;;;;;;4994780;28;20096;-74
2021/06/06 04:09:49;;;;;;;13.88;11.13;;;;;;;;;;4994769;28;20419;-74
2021/06/06 04:12:14;;;;;;;11.55;10.35;;;;;;;;;;4994684;28;20443;-74
2021/06/06 04:14:40;;;;;;;14.10;11.18;;;;;;;;;;5010911;28;20053;-74
2021/06/06 04:17:05;;;;;;;14.65;12.18;;;;;;;;;;4994352;28;20040;-73
2021/06/06 04:19:31;;;;;;;15.88;11.55;;;;;;;;;;5027148;28;20036;-74
2021/06/06 04:21:56;;;;;;;15.52;12.88;;;;;;;;;;5030651;28;20510;-74
2021/06/06 04:24:22;;;;;;;13.55;11.10;;;;;;;;;;5046620;28;20029;-74
2021/06/06 04:26:48;;;;;;;13.35;10.38;;;;;;;;;;5014538;28;20052;-74
2021/06/06 04:29:14;;;;;;;12.25;10.13;;;;;;;;;;5013967;28;20104;-74
2021/06/06 04:31:39;;;;;;;14.90;12.00;;;;;;;;;;5014211;28;20557;-74
2021/06/06 04:34:04;;;;;;;14.77;11.95;;;;;;;;;;5013886;28;20049;-74
2021/06/06 04:36:30;;;;;;;13.57;11.75;;;;;;;;;;5014073;28;20136;-74
2021/06/06 04:38:55;;;;;;;11.63;10.38;;;;;;;;;;4997627;28;20044;-74
2021/06/06 04:41:21;;;;;;;13.93;12.48;;;;;;;;;;5013902;28;20041;-74
2021/06/06 04:43:46;;;;;;;13.55;10.98;;;;;;;;;;5030538;28;20033;-74
2021/06/06 04:46:14;;;;;;;12.32;10.98;;;;;;;;;;5013691;28;20041;-74
2021/06/06 04:48:43;;;;;;;13.48;12.07;;;;;;;;;;5012722;28;20453;-74
2021/06/06 04:51:12;;;;;;;13.90;11.23;;;;;;;;;;5030498;28;20045;-74
2021/06/06 04:53:37;;;;;;;14.75;12.13;;;;;;;;;;5032015;28;20535;-74
2021/06/06 04:56:03;;;;;;;13.05;11.65;;;;;;;;;;5017959;28;20045;-74
2021/06/06 04:58:30;;;;;;;14.93;12.90;;;;;;;;;;5001654;28;20128;-74
2021/06/06 05:00:55;;;;;;;14.85;13.27;;;;;;;;;;5014392;28;20076;-74
2021/06/06 05:03:21;;;;;;;15.35;11.73;;;;;;;;;;4997622;28;20395;-74
2021/06/06 05:05:47;;;;;;;13.38;12.02;;;;;;;;;;4998184;28;20033;-74
2021/06/06 05:08:14;;;;;;;14.48;12.48;;;;;;;;;;4998212;28;20041;-74
2021/06/06 05:10:40;;;;;;;15.25;12.80;;;;;;;;;;4998039;28;20037;-74
2021/06/06 05:13:06;;;;;;;13.93;11.48;;;;;;;;;;4998154;28;20037;-74
2021/06/06 05:15:32;;;;;;;13.15;11.75;;;;;;;;;;4997961;28;20041;-74
2021/06/06 05:17:57;;;;;;;14.55;11.88;;;;;;;;;;5001553;28;20108;-74
2021/06/06 05:20:25;;;;;;;14.43;12.05;;;;;;;;;;5017298;28;20040;-74
2021/06/06 05:22:51;;;;;;;14.75;11.85;;;;;;;;;;5017839;28;20104;-74
2021/06/06 05:25:17;;;;;;;13.13;11.65;;;;;;;;;;5000957;28;20172;-74
2021/06/06 05:27:43;;;;;;;13.25;11.57;;;;;;;;;;5033758;28;20476;-74
2021/06/06 05:30:09;;;;;;;12.50;11.07;;;;;;;;;;5000291;28;20037;-74
2021/06/06 05:32:35;;;;;;;12.88;10.93;;;;;;;;;;5017084;28;20032;-75
2021/06/06 05:35:01;;;;;;;12.60;11.15;;;;;;;;;;5017139;28;20033;-74
2021/06/06 05:37:26;;;;;;;12.13;10.85;;;;;;;;;;5017226;28;20079;-74
2021/06/06 05:39:53;;;;;;;12.25;10.95;;;;;;;;;;5016979;28;20055;-74
2021/06/06 05:42:18;;;;;;;12.98;11.55;;;;;;;;;;5001111;28;20130;-74
2021/06/06 05:44:44;;;;;;;13.15;11.05;;;;;;;;;;5016688;28;20057;-74
2021/06/06 05:47:09;;;;;;;10.85;9.65;;;;;;;;;;5017288;28;20476;-74
2021/06/06 05:49:34;;;;;;;11.38;9.95;;;;;;;;;;5032901;28;20483;-74
2021/06/06 05:52:00;;;;;;;12.18;10.60;;;;;;;;;;5016831;28;20060;-74
2021/06/06 05:54:25;;;;;;;12.30;11.05;;;;;;;;;;5033010;28;20395;-74
2021/06/06 05:56:51;;;;;;;13.82;11.32;;;;;;;;;;5033559;28;20033;-74
2021/06/06 05:59:16;;;;;;;12.40;10.45;;;;;;;;;;5016605;28;20056;-74
2021/06/06 06:01:42;;;;;;;12.52;10.48;;;;;;;;;;4997114;28;20030;-74
2021/06/06 06:04:08;;;;;;;14.05;11.30;;;;;;;;;;4996378;28;20115;-74
2021/06/06 06:06:33;;;;;;;11.98;9.73;;;;;;;;;;5012568;28;20038;-74
2021/06/06 06:08:59;;;;;;;12.00;10.60;;;;;;;;;;4997202;28;20544;-75
2021/06/06 06:11:25;;;;;;;12.57;10.90;;;;;;;;;;5013000;28;20038;-74
2021/06/06 06:13:50;;;;;;;11.30;10.13;;;;;;;;;;4996995;28;20038;-75
2021/06/06 06:16:17;;;;;;;11.68;10.32;;;;;;;;;;4996825;28;20376;-75
2021/06/06 06:18:43;;;;;;;12.27;9.68;;;;;;;;;;5006201;28;20062;-75
2021/06/06 06:21:10;;;;;;;13.57;11.05;;;;;;;;;;5000318;28;20037;-75
2021/06/06 06:23:36;;;;;;;12.13;10.13;;;;;;;;;;5015881;28;20033;-75
2021/06/06 06:26:03;;;;;;;12.43;10.43;;;;;;;;;;5000467;28;20123;-75
2021/06/06 06:28:29;;;;;;;12.10;9.90;;;;;;;;;;5016019;28;20084;-75
2021/06/06 06:30:54;;;;;;;12.20;10.07;;;;;;;;;;5016177;28;20039;-75
2021/06/06 06:33:20;;;;;;;13.10;10.88;;;;;;;;;;5015585;28;20042;-75
2021/06/06 06:35:45;;;;;;;11.02;9.90;;;;;;;;;;4999795;28;20029;-75
2021/06/06 06:38:11;;;;;;;11.60;9.95;;;;;;;;;;5016121;28;20065;-75
2021/06/06 06:40:36;;;;;;;13.65;10.80;;;;;;;;;;5000073;28;20034;-75
2021/06/06 06:43:03;;;;;;;11.80;10.32;;;;;;;;;;5015698;28;20044;-75
2021/06/06 06:45:30;;;;;;;10.43;9.32;;;;;;;;;;5015649;28;20029;-75
2021/06/06 06:48:00;;;;;;;11.90;10.35;;;;;;;;;;5015816;28;20095;-75
2021/06/06 06:50:25;;;;;;;11.82;9.82;;;;;;;;;;5015679;28;20029;-75
2021/06/06 06:52:51;;;;;;;12.85;9.98;;;;;;;;;;5016077;28;20038;-75
2021/06/06 06:55:17;;;;;;;11.60;9.85;;;;;;;;;;5015752;28;20483;-75
2021/06/06 06:57:43;;;;;;;11.75;9.98;;;;;;;;;;5015731;28;20473;-75
2021/06/06 07:00:11;;;;;;;11.30;10.20;;;;;;;;;;5015346;28;20034;-75
2021/06/06 07:02:37;;;;;;;12.20;10.13;;;;;;;;;;5011626;28;20073;-76
2021/06/06 07:05:04;;;;;;;10.68;9.60;;;;;;;;;;4979329;28;20454;-76
2021/06/06 07:07:29;;;;;;;10.80;9.70;;;;;;;;;;4992720;28;20044;-76
2021/06/06 07:09:55;;;;;;;13.02;11.63;;;;;;;;;;4998964;28;20029;-76
2021/06/06 07:12:20;;;;;;;11.85;9.88;;;;;;;;;;5014386;28;20033;-76
2021/06/06 07:14:46;;;;;;;13.70;10.18;;;;;;;;;;5013842;28;20033;-76
2021/06/06 07:17:11;;;;;;;12.68;10.70;;;;;;;;;;5015335;28;20068;-76
2021/06/06 07:19:37;;;;;;;11.48;9.80;;;;;;;;;;5014946;28;20050;-76
2021/06/06 07:22:03;;;;;;;12.02;10.52;;;;;;;;;;5015389;28;20091;-76
2021/06/06 07:24:28;;;;;;;12.35;9.65;;;;;;;;;;5031279;28;20030;-76
2021/06/06 07:26:54;;;;;;;10.50;9.40;;;;;;;;;;5031229;28;20087;-76
2021/06/06 07:29:21;;;;;;;13.68;10.02;;;;;;;;;;5015031;28;20029;-76
2021/06/06 07:31:48;;;;;;;12.73;10.93;;;;;;;;;;5003731;28;20033;-76
2021/06/06 07:34:14;;;;;;;11.20;10.00;;;;;;;;;;4998392;28;20041;-76
2021/06/06 07:36:40;;;;;;;11.00;9.85;;;;;;;;;;5015093;28;20034;-76
2021/06/06 07:39:06;;;;;;;13.70;10.45;;;;;;;;;;5015238;28;20029;-77
2021/06/06 07:41:31;;;;;;;12.13;10.32;;;;;;;;;;5014875;28;20383;-77
2021/06/06 07:43:58;;;;;;;11.57;10.38;;;;;;;;;;5014731;28;20030;-76
2021/06/06 07:46:30;;;;;;;12.40;10.48;;;;;;;;;;5015994;28;20356;-76
2021/06/06 07:48:55;;;;;;;11.63;10.40;;;;;;;;;;5011115;28;20028;-76
2021/06/06 07:51:22;;;;;;;12.02;10.73;;;;;;;;;;5046875;28;20103;-76
2021/06/06 07:53:49;;;;;;;12.73;11.20;;;;;;;;;;5014548;28;20486;-76
2021/06/06 07:56:14;;;;;;;19.17;15.27;;;;;;;;;;5013925;28;20104;-76
2021/06/06 07:58:40;;;;;;;17.10;14.45;;;;;;;;;;5013941;28;20555;-76
2021/06/06 08:01:06;;;;;;;15.80;13.57;;;;;;;;;;4994681;28;20037;-76
2021/06/06 08:03:32;;;;;;;16.20;14.05;;;;;;;;;;4994592;28;20073;-76
2021/06/06 08:05:58;;;;;;;16.35;13.82;;;;;;;;;;4994821;28;20033;-76
2021/06/06 08:08:23;;;;;;;18.85;14.20;;;;;;;;;;5001919;28;20030;-76
2021/06/06 08:10:50;;;;;;;17.63;14.00;;;;;;;;;;5013854;28;20037;-76
2021/06/06 08:13:16;;;;;;;18.73;15.25;;;;;;;;;;5014791;28;20064;-76
2021/06/06 08:15:41;;;;;;;19.08;15.15;;;;;;;;;;5014116;28;20438;-76
2021/06/06 08:18:14;;;;;;;17.50;15.10;;;;;;;;;;5014310;28;20488;-76
2021/06/06 08:20:42;;;;;;;17.40;14.63;;;;;;;;;;5014287;28;20060;-76
2021/06/06 08:23:09;;;;;;;16.85;14.45;;;;;;;;;;4998187;28;20472;-77
2021/06/06 08:25:36;;;;;;;16.52;14.25;;;;;;;;;;5013809;28;20479;-76
2021/06/06 08:28:01;;;;;;;18.02;14.30;;;;;;;;;;5013191;28;20037;-77
2021/06/06 08:30:35;;;;;;;16.95;13.63;;;;;;;;;;5011636;28;20034;-77
2021/06/06 08:33:01;;;;;;;16.00;13.82;;;;;;;;;;4996218;28;20052;-76
2021/06/06 08:35:26;;;;;;;14.35;12.27;;;;;;;;;;4997330;28;20466;-77
2021/06/06 08:37:52;;;;;;;14.27;12.75;;;;;;;;;;5014130;28;20109;-76
2021/06/06 08:40:32;;;;;;;15.13;12.68;;;;;;;;;;4997359;28;20036;-76
2021/06/06 08:42:57;;;;;;;14.77;12.25;;;;;;;;;;5013788;28;20029;-77
2021/06/06 08:45:33;;;;;;;14.55;11.52;;;;;;;;;;5013884;28;20045;-76
2021/06/06 08:48:00;;;;;;;15.50;12.43;;;;;;;;;;5029893;28;20116;-77
2021/06/06 08:50:31;;;;;;;13.75;11.15;;;;;;;;;;5013558;28;20116;-77
2021/06/06 08:53:33;;;;;;;13.55;11.20;;;;;;;;;;4997891;28;20033;-77
2021/06/06 08:56:20;;;;;;;13.87;10.33;;;;;;;;;;5000068;28;20037;-77
2021/06/06 08:58:53;;;;;;;12.88;11.38;;;;;;;;;;5000127;28;20272;-77
2021/06/06 09:01:31;;;;;;;12.38;10.25;;;;;;;;;;5010340;28;20034;-77
2021/06/06 09:03:58;;;;;;;14.63;10.77;;;;;;;;;;5010066;28;20065;-77
2021/06/06 09:06:42;;;;;;;13.60;11.38;;;;;;;;;;4994413;28;20040;-77
2021/06/06 09:09:08;;;;;;;10.98;9.82;;;;;;;;;;5026800;28;20105;-77
2021/06/06 09:11:33;;;;;;;15.07;10.70;;;;;;;;;;4994046;28;20041;-77
2021/06/06 09:13:59;;;;;;;12.18;9.55;;;;;;;;;;4993854;28;20088;-78
2021/06/06 09:16:27;;;;;;;14.30;10.30;;;;;;;;;;4993765;28;20029;-77
2021/06/06 09:19:07;;;;;;;11.10;8.63;;;;;;;;;;4997594;28;20033;-77
2021/06/06 09:21:33;;;;;;;13.38;9.63;;;;;;;;;;5013549;28;20025;-77
2021/06/06 09:24:12;;;;;;;8.68;7.78;;;;;;;;;;4980834;28;20033;-77
2021/06/06 09:26:38;;;;;;;8.50;7.60;;;;;;;;;;4997519;28;20040;-77
2021/06/06 09:29:09;;;;;;;10.40;7.55;;;;;;;;;;4996987;28;20033;-78
2021/06/06 09:31:34;;;;;;;10.17;7.73;;;;;;;;;;5014124;28;20029;-78
2021/06/06 09:34:02;;;;;;;8.52;6.55;;;;;;;;;;5029906;28;20437;-78
2021/06/06 09:36:38;;;;;;;8.45;6.95;;;;;;;;;;5030231;28;20034;-78
2021/06/06 09:39:03;;;;;;;7.95;6.63;;;;;;;;;;5015464;28;20028;-79
2021/06/06 09:41:40;;;;;;;7.00;6.30;;;;;;;;;;5051930;28;20120;-90
2021/06/06 09:44:11;;;;;;;7.57;6.18;;;;;;;;;;4986716;28;20025;-79
2021/06/06 09:46:40;;;;;;;7.13;6.05;;;;;;;;;;5034831;28;20083;-78
2021/06/06 09:49:07;;;;;;;7.00;5.70;;;;;;;;;;5028013;28;20061;-78
2021/06/06 09:51:34;;;;;;;6.45;5.70;;;;;;;;;;5000693;28;20041;-79
2021/06/06 09:54:13;;;;;;;6.80;5.25;;;;;;;;;;5016710;28;20044;-78
2021/06/06 09:56:39;;;;;;;6.55;5.43;;;;;;;;;;5001478;28;20076;-78
2021/06/06 09:59:34;;;;;;;7.68;5.78;;;;;;;;;;5016689;28;20056;-78
2021/06/06 10:02:10;;;;;;;8.10;6.15;;;;;;;;;;5028339;28;20044;-76
2021/06/06 10:04:36;;;;;;;8.95;5.82;;;;;;;;;;5013110;28;20040;-76
2021/06/06 10:07:27;;;;;;;9.13;6.13;;;;;;;;;;4980673;28;20033;-76
2021/06/06 10:09:53;;;;;;;6.43;5.60;;;;;;;;;;5029805;28;20492;-76
2021/06/06 10:12:25;;;;;;;7.13;5.90;;;;;;;;;;4996706;28;20053;-76
2021/06/06 10:15:10;;;;;;;6.90;5.67;;;;;;;;;;5014010;28;20488;-76
2021/06/06 10:17:47;;;;;;;7.13;5.82;;;;;;;;;;4999404;28;20037;-76
2021/06/06 10:20:25;;;;;;;8.48;6.32;;;;;;;;;;5000619;28;20507;-76
2021/06/06 10:23:15;;;;;;;9.30;6.03;;;;;;;;;;5032668;28;20116;-76
2021/06/06 10:25:44;;;;;;;6.50;5.30;;;;;;;;;;5000377;28;20029;-76
2021/06/06 10:28:10;;;;;;;8.13;5.80;;;;;;;;;;5016289;28;20107;-76
2021/06/06 10:30:43;;;;;;;8.10;6.15;;;;;;;;;;5016038;28;20032;-76
2021/06/06 10:33:08;;;;;;;;;;;;;;;;;;5000207;28;20439;-76
2021/06/06 10:35:33;;;;;;;8.52;5.68;;;;;;;;;;5033404;28;19955;-76
2021/06/06 10:38:02;;;;;;;9.27;5.80;;;;;;;;;;5016340;28;20059;-76
2021/06/06 10:40:31;;;;;;;9.50;6.20;;;;;;;;;;5015958;28;20398;-76
2021/06/06 10:43:10;;;;;;;13.48;7.50;;;;;;;;;;5033798;28;20049;-76
2021/06/06 10:46:00;;;;;;;15.48;11.48;;;;;;;;;;5016240;28;20037;-76
2021/06/06 10:48:31;;;;;;;21.05;14.80;;;;;;;;;;5032807;28;20523;-77
2021/06/06 10:51:42;;;;;;;21.85;15.18;;;;;;;;;;5015035;28;20030;-77
2021/06/06 10:54:40;;;;;;;15.00;12.60;;;;;;;;;;5001748;28;20494;-76
2021/06/06 10:57:33;;;;;;;18.20;12.00;;;;;;;;;;5026546;28;20045;-76
2021/06/06 11:00:02;;;;;;;15.13;10.73;;;;;;;;;;5017387;28;20072;-76
2021/06/06 11:02:34;;;;;;;15.70;10.98;;;;;;;;;;5032743;28;20041;-76
2021/06/06 11:05:03;;;;;;;13.77;10.68;;;;;;;;;;5031692;28;20052;-76
2021/06/06 11:07:35;;;;;;;16.30;10.95;;;;;;;;;;5015723;28;20069;-76
2021/06/06 11:10:30;;;;;;;15.35;10.95;;;;;;;;;;5015144;28;20049;-76
2021/06/06 11:12:56;;;;;;;11.10;9.52;;;;;;;;;;5015014;28;20555;-77
2021/06/06 11:15:38;;;;;;;12.38;9.57;;;;;;;;;;5014810;28;20112;-76
2021/06/06 11:18:17;;;;;;;14.45;11.45;;;;;;;;;;5031289;28;20395;-76
2021/06/06 11:20:50;;;;;;;12.13;10.93;;;;;;;;;;5031774;28;20036;-76
2021/06/06 11:23:22;;;;;;;12.57;8.90;;;;;;;;;;5031607;28;20116;-76
2021/06/06 11:25:49;;;;;;;15.05;13.48;;;;;;;;;;5015734;28;20053;-76
2021/06/06 11:28:37;;;;;;;16.23;11.77;;;;;;;;;;5015306;28;20030;-76
2021/06/06 11:31:05;;;;;;;12.25;10.55;;;;;;;;;;5031426;28;20076;-76
2021/06/06 11:33:41;;;;;;;12.70;10.25;;;;;;;;;;4982281;28;20037;-76
2021/06/06 11:36:07;;;;;;;13.73;8.88;;;;;;;;;;5015593;28;20057;-76
2021/06/06 11:38:43;;;;;;;13.48;9.32;;;;;;;;;;5015098;28;20033;-76
2021/06/06 11:41:12;;;;;;;11.75;9.27;;;;;;;;;;5031364;28;20040;-77
2021/06/06 11:43:45;;;;;;;9.82;7.38;;;;;;;;;;5011508;28;20037;-76
2021/06/06 11:46:13;;;;;;;11.85;8.60;;;;;;;;;;5029508;28;20483;-76
2021/06/06 11:48:46;;;;;;;12.23;7.68;;;;;;;;;;5029513;28;20128;-76
2021/06/06 11:51:24;;;;;;;10.30;7.90;;;;;;;;;;5014123;28;20078;-76
2021/06/06 11:53:50;;;;;;;9.77;8.02;;;;;;;;;;4998044;28;20075;-76
2021/06/06 11:56:16;;;;;;;7.53;6.43;;;;;;;;;;4998574;28;20031;-76
2021/06/06 11:58:53;;;;;;;8.35;6.45;;;;;;;;;;5047589;28;20437;-76
2021/06/06 12:01:23;;;;;;;11.05;5.75;;;;;;;;;;5011125;28;20444;-76
2021/06/06 12:03:50;;;;;;;10.50;8.35;;;;;;;;;;5010352;28;20523;-76
2021/06/06 12:06:36;;;;;;;17.63;7.32;;;;;;;;;;4995113;28;20025;-76
2021/06/06 12:09:14;;;;;;;11.63;6.70;;;;;;;;;;5027802;28;20034;-76
2021/06/06 12:11:41;;;;;;;9.63;7.57;;;;;;;;;;4995035;28;20026;-76
2021/06/06 12:14:21;;;;;;;12.80;7.90;;;;;;;;;;4978758;28;20076;-76
2021/06/06 12:17:17;;;;;;;14.13;10.38;;;;;;;;;;4994339;28;20041;-76
2021/06/06 12:19:45;;;;;;;12.73;9.00;;;;;;;;;;5028276;28;20046;-76
2021/06/06 12:22:13;;;;;;;13.13;9.27;;;;;;;;;;5014204;28;20060;-76
2021/06/06 12:24:39;;;;;;;16.90;8.25;;;;;;;;;;5030302;28;20044;-76
2021/06/06 12:27:19;;;;;;;16.05;8.93;;;;;;;;;;5014333;28;20488;-76
2021/06/06 12:29:49;;;;;;;16.95;9.07;;;;;;;;;;5014994;28;20076;-76
2021/06/06 12:32:21;;;;;;;12.52;8.07;;;;;;;;;;4997860;28;20136;-76
2021/06/06 12:34:47;;;;;;;;;;;;;;;;;;5015044;28;20049;-75
2021/06/06 12:37:17;;;;;;;8.90;7.88;;;;;;;;;;5030707;28;19905;-76
2021/06/06 12:39:44;;;;;;;9.23;7.60;;;;;;;;;;4981791;28;20032;-76
2021/06/06 12:42:09;;;;;;;8.77;6.53;;;;;;;;;;4998322;28;20503;-76
2021/06/06 12:44:40;;;;;;;9.75;7.53;;;;;;;;;;4997283;28;20032;-75
2021/06/06 12:47:26;;;;;;;8.52;6.47;;;;;;;;;;5013905;28;20029;-74
2021/06/06 12:50:20;;;;;;;8.77;7.70;;;;;;;;;;5016702;28;20050;-74
2021/06/06 12:52:53;;;;;;;8.90;7.38;;;;;;;;;;5012601;28;20380;-74
2021/06/06 12:55:30;;;;;;;13.38;8.05;;;;;;;;;;5013784;28;20105;-73
2021/06/06 12:58:00;;;;;;;9.10;6.95;;;;;;;;;;5014270;28;20038;-74
2021/06/06 13:00:33;;;;;;;7.45;6.68;;;;;;;;;;5013812;28;20021;-74
2021/06/06 13:03:03;;;;;;;8.65;6.28;;;;;;;;;;5026717;28;20049;-74
2021/06/06 13:05:39;;;;;;;7.13;6.25;;;;;;;;;;4994604;28;20030;-74
2021/06/06 13:08:05;;;;;;;8.02;6.85;;;;;;;;;;5011946;28;20026;-74
2021/06/06 13:10:35;;;;;;;6.43;5.78;;;;;;;;;;5010587;28;20061;-74
2021/06/06 13:13:02;;;;;;;8.32;6.15;;;;;;;;;;5010238;28;20038;-74
2021/06/06 13:15:39;;;;;;;7.97;6.13;;;;;;;;;;4980148;28;20503;-74
2021/06/06 13:18:33;;;;;;;9.07;6.22;;;;;;;;;;5002616;28;20566;-74
2021/06/06 13:21:00;;;;;;;13.80;6.93;;;;;;;;;;5019833;28;20075;-74
2021/06/06 13:23:34;;;;;;;21.63;15.82;;;;;;;;;;5000945;28;20037;-74
2021/06/06 13:26:11;;;;;;;19.55;13.15;;;;;;;;;;5017181;28;20038;-74
2021/06/06 13:28:54;;;;;;;14.55;9.68;;;;;;;;;;5018323;28;20034;-74
2021/06/06 13:31:31;;;;;;;15.52;9.30;;;;;;;;;;5002521;28;20029;-73
2021/06/06 13:33:57;;;;;;;23.65;9.52;;;;;;;;;;5001290;28;20044;-74
2021/06/06 13:36:23;;;;;;;16.23;8.00;;;;;;;;;;5016046;28;20037;-74
2021/06/06 13:38:49;;;;;;;8.88;7.45;;;;;;;;;;5000528;28;20076;-74
2021/06/06 13:41:15;;;;;;;10.68;7.53;;;;;;;;;;5033325;28;20403;-74
2021/06/06 13:43:40;;;;;;;11.88;8.00;;;;;;;;;;5000871;28;20041;-74
2021/06/06 13:46:06;;;;;;;9.23;7.70;;;;;;;;;;5000465;28;20040;-74
2021/06/06 13:48:32;;;;;;;10.57;7.47;;;;;;;;;;5013794;28;20472;-73
2021/06/06 13:50:58;;;;;;;9.77;8.10;;;;;;;;;;5013574;28;20476;-73
2021/06/06 13:53:28;;;;;;;10.52;7.53;;;;;;;;;;5013471;28;20034;-75
2021/06/06 13:55:54;;;;;;;11.57;6.85;;;;;;;;;;5013384;28;20034;-74
2021/06/06 13:58:20;;;;;;;11.40;6.72;;;;;;;;;;4997446;28;20180;-74
2021/06/06 14:00:45;;;;;;;12.32;7.72;;;;;;;;;;4999125;28;20030;-73
2021/06/06 14:03:13;;;;;;;10.60;7.57;;;;;;;;;;5016362;28;20064;-73
2021/06/06 14:05:39;;;;;;;11.98;7.75;;;;;;;;;;5016893;28;20515;-74
2021/06/06 14:08:05;;;;;;;8.20;6.57;;;;;;;;;;5033004;28;20025;-73
2021/06/06 14:10:35;;;;;;;9.55;7.57;;;;;;;;;;5016106;28;20467;-73
2021/06/06 14:13:05;;;;;;;10.48;7.53;;;;;;;;;;4983696;28;20064;-73
2021/06/06 14:15:30;;;;;;;11.30;7.05;;;;;;;;;;5000069;28;20505;-73
2021/06/06 14:17:56;;;;;;;8.82;6.35;;;;;;;;;;4996763;28;20053;-73
2021/06/06 14:20:24;;;;;;;8.85;7.13;;;;;;;;;;5012874;28;20112;-74
2021/06/06 14:22:52;;;;;;;9.77;7.32;;;;;;;;;;4996619;28;20113;-73
2021/06/06 14:25:18;;;;;;;8.32;6.43;;;;;;;;;;4996555;28;20529;-73
2021/06/06 14:27:43;;;;;;;8.27;5.43;;;;;;;;;;4996164;28;20029;-74
2021/06/06 14:30:12;;;;;;;5.90;4.38;;;;;;;;;;4996572;28;20042;-73
2021/06/06 14:32:38;;;;;;;6.60;4.72;;;;;;;;;;5002116;28;20034;-73
2021/06/06 14:35:06;;;;;;;7.22;5.03;;;;;;;;;;5016087;28;20102;-73
2021/06/06 14:37:31;;;;;;;9.05;5.93;;;;;;;;;;5016361;28;20025;-73
2021/06/06 14:39:57;;;;;;;11.27;7.50;;;;;;;;;;5016580;28;20375;-73
2021/06/06 14:42:24;;;;;;;12.85;8.02;;;;;;;;;;5015062;28;20211;-74
2021/06/06 14:44:49;;;;;;;10.82;7.45;;;;;;;;;;5015570;28;20045;-73